Time;durP1;ratioP1;P1;durP2;ratioP2;P2;SDS_P1;SDS_P2;PMS_P1;PMS_P2;Temp;Humidity;BMP_temperature;BMP_pressure;BME280_temperature;BME280_humidity;BME280_pressure;Samples;Min_cycle;Max_cycle;Signal;HPM_P1;HPM_P2
2022/03/18 00:00:20;;;;;;;34.27;15.43;;;;;;;0.68;43.28;100947.73;2108693;84;21473;-81
2022/03/18 00:03:22;;;;;;;25.62;14.13;;;;;;;0.66;43.26;100958.27;2079313;85;21011;-82
2022/03/18 00:06:23;;;;;;;29.00;15.03;;;;;;;0.63;43.36;100957.62;2108150;84;20963;-83
2022/03/18 00:09:23;;;;;;;29.50;13.87;;;;;;;0.61;43.43;100948.50;2100872;84;20999;-82
2022/03/18 00:12:24;;;;;;;24.30;14.13;;;;;;;0.59;43.66;100956.46;2100235;84;21240;-82
2022/03/18 00:15:27;;;;;;;25.70;14.80;;;;;;;0.57;43.66;100963.53;2099601;84;21089;-83
2022/03/18 00:18:27;;;;;;;28.77;14.17;;;;;;;0.55;43.73;100959.55;2106784;84;21013;-83
2022/03/18 00:21:28;;;;;;;35.40;18.00;;;;;;;0.53;43.82;100970.46;2110694;84;21054;-80
2022/03/18 00:24:28;;;;;;;30.40;17.20;;;;;;;0.51;43.89;100972.91;2109243;84;20959;-82
2022/03/18 00:27:29;;;;;;;27.93;15.30;;;;;;;0.46;43.99;100979.32;2102650;84;20980;-83
2022/03/18 00:30:29;;;;;;;29.67;14.67;;;;;;;0.46;44.00;100985.74;2091962;84;20947;-83
2022/03/18 00:33:30;;;;;;;28.10;14.57;;;;;;;0.46;44.08;100997.30;2091838;85;20979;-81
2022/03/18 00:36:30;;;;;;;25.33;13.90;;;;;;;0.41;44.32;100995.11;2091713;84;20936;-85
2022/03/18 00:39:31;;;;;;;27.63;14.67;;;;;;;0.39;44.27;100997.55;2091590;84;20943;-84
2022/03/18 00:42:31;;;;;;;30.57;15.80;;;;;;;0.38;44.26;101006.02;2091732;85;20931;-84
2022/03/18 00:45:32;;;;;;;31.53;15.83;;;;;;;0.39;44.37;101002.69;2091327;84;20963;-82
2022/03/18 00:52:05;;;;;;;32.03;14.63;;;;;;;0.33;44.64;100993.55;2102024;84;21037;-82
2022/03/18 00:55:05;;;;;;;76.70;18.80;;;;;;;0.27;44.74;100990.97;2112479;83;20994;-83
2022/03/18 00:58:05;;;;;;;26.17;14.27;;;;;;;0.27;44.88;100990.07;2118803;84;21035;-85
2022/03/18 01:01:06;;;;;;;27.93;15.87;;;;;;;0.23;44.88;100986.34;2117949;84;20989;-83
2022/03/18 01:04:07;;;;;;;26.70;13.87;;;;;;;0.20;44.92;100986.08;2116404;84;21063;-83
2022/03/18 01:07:07;;;;;;;27.77;14.07;;;;;;;0.19;45.01;100986.84;2116907;84;21045;-84
2022/03/18 01:10:08;;;;;;;24.67;13.73;;;;;;;0.16;45.09;100986.58;2114147;84;20982;-85
2022/03/18 01:13:08;;;;;;;25.47;12.87;;;;;;;0.14;45.14;100982.08;2112829;83;21018;-87
2022/03/18 01:16:09;;;;;;;27.73;14.63;;;;;;;0.09;45.28;100976.55;2105682;84;20900;-85
2022/03/18 01:19:10;;;;;;;27.83;13.50;;;;;;;0.03;45.53;100971.26;2118403;84;20962;-87
2022/03/18 01:22:10;;;;;;;28.37;15.50;;;;;;;0.01;45.47;100970.23;2111138;83;21082;-84
2022/03/18 01:25:11;;;;;;;26.00;14.13;;;;;;;-0.01;45.51;100972.24;2118540;84;20982;-84
2022/03/18 01:28:11;;;;;;;22.33;12.50;;;;;;;-0.02;45.57;100969.54;2116985;84;20927;-86
2022/03/18 01:31:12;;;;;;;26.30;13.87;;;;;;;-0.04;45.77;100967.22;2113624;83;21338;-85
2022/03/18 01:34:12;;;;;;;25.37;13.30;;;;;;;-0.09;45.85;100968.11;2120462;83;21006;-84
2022/03/18 01:37:13;;;;;;;26.47;13.73;;;;;;;-0.13;45.97;100972.45;2116190;84;21033;-82
2022/03/18 01:40:13;;;;;;;25.93;14.47;;;;;;;-0.15;45.94;100968.86;2113782;84;20987;-83
2022/03/18 01:43:14;;;;;;;26.07;15.03;;;;;;;-0.20;46.25;100967.55;2121643;83;20912;-83
2022/03/18 01:46:15;;;;;;;38.87;15.97;;;;;;;-0.23;46.24;100967.66;2112329;84;20959;-85
2022/03/18 01:49:15;;;;;;;26.73;13.73;;;;;;;-0.24;46.57;100970.61;2119143;84;21002;-83
2022/03/18 01:52:16;;;;;;;28.20;14.87;;;;;;;-0.27;46.37;100978.05;2116829;84;21010;-84
2022/03/18 01:55:17;;;;;;;23.33;14.20;;;;;;;-0.32;46.63;100974.17;2114874;83;20961;-82
2022/03/18 01:58:17;;;;;;;26.03;14.40;;;;;;;-0.37;46.63;100981.84;2111705;83;21006;-82
2022/03/18 02:01:18;;;;;;;27.47;15.80;;;;;;;-0.41;46.86;100984.91;2120466;84;20998;-84
2022/03/18 02:04:18;;;;;;;25.63;14.17;;;;;;;-0.47;47.05;100983.08;2111817;84;20947;-85
2022/03/18 02:07:19;;;;;;;21.43;14.27;;;;;;;-0.51;47.32;100981.00;2116317;84;20991;-83
2022/03/18 02:10:19;;;;;;;28.50;14.33;;;;;;;-0.53;47.20;100976.12;2111883;84;20982;-84
2022/03/18 02:13:20;;;;;;;24.70;13.90;;;;;;;-0.57;47.50;100970.20;2111706;83;21366;-82
2022/03/18 02:16:20;;;;;;;25.97;13.60;;;;;;;-0.57;47.40;100970.20;2113101;84;20990;-82
2022/03/18 02:19:21;;;;;;;25.13;15.20;;;;;;;-0.59;47.48;100968.78;2117370;83;20991;-83
2022/03/18 02:22:21;;;;;;;28.10;14.50;;;;;;;-0.63;47.77;100967.09;2117664;84;21070;-84
2022/03/18 02:25:22;;;;;;;28.87;14.87;;;;;;;-0.62;47.85;100967.22;2117656;84;20985;-83
2022/03/18 02:28:22;;;;;;;37.40;15.23;;;;;;;-0.63;47.63;100971.83;2113391;83;21002;-82
2022/03/18 02:31:22;;;;;;;25.70;13.70;;;;;;;-0.64;47.98;100971.31;2116877;84;20947;-85
2022/03/18 02:34:23;;;;;;;31.53;13.50;;;;;;;-0.72;48.00;100968.06;2110801;84;21030;-83
2022/03/18 02:37:24;;;;;;;26.47;12.93;;;;;;;-0.73;48.08;100961.52;2121265;83;20994;-83
2022/03/18 02:40:24;;;;;;;22.20;12.87;;;;;;;-0.76;48.26;100963.42;2112536;83;20986;-84
2022/03/18 02:43:25;;;;;;;78.97;16.53;;;;;;;-0.81;48.54;100964.67;2119356;83;20939;-82
2022/03/18 02:46:25;;;;;;;23.27;13.40;;;;;;;-0.84;48.54;100966.96;2119921;84;21346;-83
2022/03/18 02:49:26;;;;;;;25.47;13.27;;;;;;;-0.83;48.66;100976.84;2110620;83;21435;-84
2022/03/18 02:52:26;;;;;;;26.83;13.27;;;;;;;-0.84;48.34;100978.50;2118529;84;21042;-82
2022/03/18 02:55:27;;;;;;;23.77;12.83;;;;;;;-0.86;48.47;100969.77;2111225;84;20982;-81
2022/03/18 02:58:27;;;;;;;372.00;41.27;;;;;;;-0.88;48.51;100974.20;2118920;84;21048;-81
2022/03/18 03:01:28;;;;;;;30.47;12.80;;;;;;;-0.89;48.55;100980.09;2121730;83;20998;-79
2022/03/18 03:04:28;;;;;;;25.17;13.20;;;;;;;-0.88;48.64;100987.92;2112817;83;21390;-81
2022/03/18 03:08:14;;;;;;;27.47;12.60;;;;;;;-0.88;48.54;100991.77;2120302;84;21324;-82
2022/03/18 03:10:31;;;;;;;20.33;11.63;;;;;;;-0.84;48.46;100999.39;2108261;83;20990;-81
2022/03/18 03:13:32;;;;;;;79.00;17.57;;;;;;;-0.82;48.55;101000.05;2110185;84;20935;-78
2022/03/18 03:16:34;;;;;;;21.03;12.97;;;;;;;-0.83;48.56;100998.63;2118664;84;21066;-81
2022/03/18 03:19:34;;;;;;;20.70;11.97;;;;;;;-0.83;48.40;100998.25;2116925;84;21006;-82
2022/03/18 03:22:35;;;;;;;25.27;11.93;;;;;;;-0.86;48.42;101008.23;2110469;83;20990;-81
2022/03/18 03:25:35;;;;;;;25.60;12.27;;;;;;;-0.86;48.37;101012.07;2118326;84;21278;-81
2022/03/18 03:28:37;;;;;;;295.03;29.90;;;;;;;-0.85;48.35;101011.31;2096506;84;21010;-80
2022/03/18 03:31:38;;;;;;;27.40;11.53;;;;;;;-0.86;48.51;101013.36;2118396;84;20966;-82
2022/03/18 03:34:39;;;;;;;20.47;11.90;;;;;;;-0.86;48.41;101016.30;2119326;83;20966;-81
2022/03/18 03:37:39;;;;;;;26.73;13.20;;;;;;;-0.89;48.67;101018.55;2119795;84;21058;-82
2022/03/18 03:40:40;;;;;;;27.50;12.53;;;;;;;-0.91;48.55;101011.10;2118782;83;21026;-82
2022/03/18 03:43:42;;;;;;;23.57;11.37;;;;;;;-0.94;48.61;101011.72;2120211;84;21047;-82
2022/03/18 03:46:43;;;;;;;21.87;11.63;;;;;;;-0.98;48.66;101009.64;2112233;83;21042;-83
2022/03/18 03:49:44;;;;;;;19.80;11.47;;;;;;;-1.00;48.65;101018.85;2119778;84;20990;-82
2022/03/18 03:52:45;;;;;;;19.47;10.97;;;;;;;-0.99;48.84;101020.66;2119744;83;21073;-81
2022/03/18 03:55:45;;;;;;;19.93;11.27;;;;;;;-1.03;49.00;101019.85;2119555;84;21045;-82
2022/03/18 03:58:46;;;;;;;17.50;11.37;;;;;;;-1.05;48.89;101021.38;2118439;84;21080;-83
2022/03/18 04:01:46;;;;;;;52.43;12.57;;;;;;;-1.07;48.92;101019.95;2120134;84;21409;-84
2022/03/18 04:04:47;;;;;;;18.60;10.27;;;;;;;-1.06;48.93;101017.02;2119212;84;21433;-80
2022/03/18 04:07:47;;;;;;;21.33;10.70;;;;;;;-1.09;48.91;101007.76;2118246;84;21022;-79
2022/03/18 04:10:48;;;;;;;26.47;10.37;;;;;;;-1.12;48.96;101010.94;2120280;84;20967;-80
2022/03/18 04:13:48;;;;;;;19.17;11.03;;;;;;;-1.19;49.09;101008.58;2121124;83;20994;-84
2022/03/18 04:16:49;;;;;;;19.47;10.63;;;;;;;-1.22;49.20;101007.01;2119694;84;21003;-85
2022/03/18 04:19:49;;;;;;;21.93;12.80;;;;;;;-1.25;49.19;101008.01;2120007;84;20970;-80
2022/03/18 04:22:50;;;;;;;18.27;10.57;;;;;;;-1.31;49.49;101009.63;2121237;84;21069;-83
2022/03/18 04:25:51;;;;;;;26.37;10.83;;;;;;;-1.30;49.50;101007.58;2120001;83;21037;-82
2022/03/18 04:28:51;;;;;;;17.07;9.60;;;;;;;-1.30;49.28;101010.14;2119842;84;20994;-83
2022/03/18 04:31:52;;;;;;;19.77;10.27;;;;;;;-1.27;49.27;101013.75;2118861;83;20970;-82
2022/03/18 04:34:52;;;;;;;17.77;9.60;;;;;;;-1.25;49.19;101016.08;2118355;84;20962;-82
2022/03/18 04:37:53;;;;;;;13.10;9.40;;;;;;;-1.25;49.10;101025.05;2120574;84;21449;-80
2022/03/18 04:40:53;;;;;;;21.70;10.23;;;;;;;-1.24;49.08;101024.28;2118912;83;20987;-80
2022/03/18 04:43:54;;;;;;;30.53;11.03;;;;;;;-1.20;48.99;101031.50;2119545;84;20942;-80
2022/03/18 04:46:54;;;;;;;17.77;10.10;;;;;;;-1.16;48.89;101037.05;2118845;84;21017;-80
2022/03/18 04:49:55;;;;;;;14.63;9.80;;;;;;;-1.11;48.68;101038.75;2109025;84;21026;-79
2022/03/18 04:52:55;;;;;;;17.73;9.43;;;;;;;-1.07;48.56;101039.55;2116440;84;21026;-81
2022/03/18 04:55:55;;;;;;;15.97;9.20;;;;;;;-1.06;48.41;101040.08;2090478;83;20925;-82
2022/03/18 04:58:56;;;;;;;18.23;10.10;;;;;;;-1.03;48.36;101041.64;2117634;83;20966;-79
2022/03/18 05:01:57;;;;;;;18.43;10.27;;;;;;;-1.01;48.24;101038.84;2109606;84;21406;-81
2022/03/18 05:04:58;;;;;;;18.83;9.50;;;;;;;-0.99;48.03;101048.47;2108824;84;21065;-82
2022/03/18 05:07:59;;;;;;;16.17;9.33;;;;;;;-0.96;47.96;101044.91;2099464;83;21334;-81
2022/03/18 05:10:59;;;;;;;70.27;13.47;;;;;;;-0.94;47.68;101043.77;2118267;83;20988;-80
2022/03/18 05:14:00;;;;;;;19.53;10.23;;;;;;;-0.89;47.76;101054.06;2117441;84;21053;-80
2022/03/18 05:17:01;;;;;;;15.53;8.57;;;;;;;-0.81;47.60;101055.70;2118100;84;21021;-80
2022/03/18 05:20:02;;;;;;;12.97;8.80;;;;;;;-0.74;47.29;101046.53;2109137;84;21021;-81
2022/03/18 05:23:02;;;;;;;14.87;8.87;;;;;;;-0.67;47.01;101057.86;2108668;84;21371;-80
2022/03/18 05:26:03;;;;;;;16.57;9.13;;;;;;;-0.58;46.83;101059.08;2090549;84;20982;-81
2022/03/18 05:29:03;;;;;;;12.17;8.47;;;;;;;-0.44;46.61;101061.22;2106589;84;21009;-83
2022/03/18 05:32:04;;;;;;;14.40;8.97;;;;;;;-0.28;46.48;101061.31;2107676;84;20951;-81
2022/03/18 05:35:04;;;;;;;13.33;8.50;;;;;;;-0.10;46.00;101062.95;2119778;83;20943;-81
2022/03/18 05:38:05;;;;;;;20.60;8.77;;;;;;;0.14;45.78;101065.55;2118064;84;20998;-81
2022/03/18 05:41:05;;;;;;;76.53;10.60;;;;;;;0.33;44.37;101065.48;2101848;84;20983;-81
2022/03/18 05:44:07;;;;;;;13.93;8.07;;;;;;;0.50;44.57;101067.47;2090324;84;21461;-81
2022/03/18 05:47:08;;;;;;;13.33;8.73;;;;;;;0.79;44.51;101075.50;2098915;84;20974;-81
2022/03/18 05:50:08;;;;;;;14.63;8.00;;;;;;;1.04;43.62;101067.84;2106114;83;21448;-82
2022/03/18 05:53:09;;;;;;;13.00;8.50;;;;;;;1.30;42.61;101076.85;2091060;84;21058;-81
2022/03/18 05:59:28;;;;;;;23.57;9.43;;;;;;;1.72;42.17;101084.66;2089678;85;21053;-81
2022/03/18 06:02:29;;;;;;;14.17;9.43;;;;;;;2.02;41.79;101083.71;2088853;85;20990;-82
2022/03/18 06:05:29;;;;;;;14.03;8.90;;;;;;;2.26;41.16;101091.23;2092364;84;21386;-81
2022/03/18 06:11:49;;;;;;;23.30;9.47;;;;;;;2.82;40.93;101096.64;2091832;85;21065;-81
2022/03/18 06:14:49;;;;;;;34.93;9.73;;;;;;;3.13;40.07;101100.31;2090787;84;21006;-81
2022/03/18 06:17:51;;;;;;;22.53;9.03;;;;;;;3.20;39.04;101111.22;2089483;84;21513;-82
2022/03/18 06:20:51;;;;;;;17.50;8.67;;;;;;;3.22;39.03;101107.47;2091071;84;20970;-80
2022/03/18 06:23:51;;;;;;;13.77;8.77;;;;;;;3.39;39.11;101106.17;2090639;85;21066;-84
2022/03/18 06:26:52;;;;;;;35.30;9.43;;;;;;;3.56;38.02;101112.64;2091901;85;21010;-83
2022/03/18 06:29:53;;;;;;;33.53;8.77;;;;;;;3.63;37.62;101115.81;2089345;85;21018;-83
2022/03/18 06:32:54;;;;;;;12.87;8.83;;;;;;;3.80;37.95;101116.67;2089756;84;21061;-82
2022/03/18 06:35:54;;;;;;;19.43;8.57;;;;;;;4.03;37.63;101113.21;2091566;85;21058;-81
2022/03/18 06:38:55;;;;;;;13.30;8.00;;;;;;;4.19;37.22;101108.77;2089500;84;21011;-82
2022/03/18 06:41:56;;;;;;;25.27;8.63;;;;;;;4.30;36.27;101111.73;2089624;85;20955;-82
2022/03/18 06:44:57;;;;;;;241.70;16.30;;;;;;;4.36;36.36;101121.66;2088988;84;21039;-82
2022/03/18 06:47:57;;;;;;;12.80;7.93;;;;;;;4.34;35.20;101124.14;2091645;85;21011;-82
2022/03/18 06:50:58;;;;;;;15.67;8.27;;;;;;;4.22;34.26;101115.45;2095771;84;21042;-81
2022/03/18 06:53:58;;;;;;;12.30;8.20;;;;;;;4.09;34.41;101126.58;2111533;84;21089;-82
2022/03/18 06:56:58;;;;;;;12.70;7.27;;;;;;;4.24;35.09;101128.09;2116446;83;21006;-79
2022/03/18 06:59:59;;;;;;;73.43;10.57;;;;;;;4.44;35.53;101120.53;2108129;84;21010;-81
2022/03/18 07:03:00;;;;;;;12.83;7.53;;;;;;;4.59;34.99;101122.02;2117997;84;21006;-83
2022/03/18 07:06:00;;;;;;;47.97;9.23;;;;;;;4.62;33.67;101129.61;2117952;84;20995;-82
2022/03/18 07:09:01;;;;;;;14.67;7.37;;;;;;;4.54;33.25;101135.02;2112662;84;20991;-81
2022/03/18 07:12:01;;;;;;;17.33;7.30;;;;;;;4.58;33.65;101140.92;2089868;84;20987;-79
2022/03/18 07:15:01;;;;;;;10.87;6.20;;;;;;;4.70;32.86;101138.81;2092077;84;20998;-79
2022/03/18 07:18:03;;;;;;;53.37;8.90;;;;;;;4.70;32.35;101134.94;2105463;84;21040;-80
2022/03/18 07:21:04;;;;;;;10.53;5.57;;;;;;;4.79;32.43;101145.04;2117341;84;21124;-82
2022/03/18 07:24:05;;;;;;;14.13;6.50;;;;;;;4.88;31.85;101137.03;2112216;84;21058;-82
2022/03/18 07:27:06;;;;;;;10.83;6.37;;;;;;;4.97;31.99;101131.20;2094275;84;21429;-81
2022/03/18 07:30:06;;;;;;;10.83;6.40;;;;;;;5.23;32.64;101140.42;2092825;84;21427;-84
2022/03/18 07:33:07;;;;;;;25.20;7.70;;;;;;;5.40;31.56;101136.02;2104944;84;21014;-82
2022/03/18 07:36:07;;;;;;;11.70;6.73;;;;;;;5.48;32.07;101140.42;2089642;84;20991;-83
2022/03/18 07:39:08;;;;;;;10.03;6.80;;;;;;;5.57;30.30;101139.75;2102188;84;21043;-83
2022/03/18 07:42:08;;;;;;;8.90;6.20;;;;;;;5.48;30.45;101140.42;2117753;84;21327;-81
2022/03/18 07:45:09;;;;;;;9.00;7.00;;;;;;;5.43;31.26;101145.69;2104666;84;21039;-86
2022/03/18 07:48:09;;;;;;;10.73;6.60;;;;;;;5.64;31.68;101148.44;2100618;84;21010;-82
2022/03/18 07:51:10;;;;;;;111.90;11.60;;;;;;;5.76;31.27;101141.50;2105114;84;21054;-80
2022/03/18 07:54:10;;;;;;;21.77;7.13;;;;;;;5.85;30.49;101150.69;2088991;84;21026;-82
2022/03/18 07:57:11;;;;;;;11.53;6.13;;;;;;;5.60;28.95;101143.84;2111539;84;21088;-83
2022/03/18 08:00:12;;;;;;;10.83;6.77;;;;;;;5.56;29.24;101150.91;2115289;84;21002;-81
2022/03/18 08:03:12;;;;;;;65.40;9.03;;;;;;;5.47;29.18;101148.98;2102679;84;21045;-81
2022/03/18 08:06:13;;;;;;;7.73;6.00;;;;;;;5.66;30.22;101151.14;2108797;84;21021;-81
2022/03/18 08:09:13;;;;;;;11.00;6.07;;;;;;;5.91;29.65;101157.21;2119120;84;21437;-81
2022/03/18 08:12:14;;;;;;;16.37;6.53;;;;;;;5.94;28.33;101160.41;2106132;84;20935;-80
2022/03/18 08:15:14;;;;;;;10.60;5.90;;;;;;;5.92;28.83;101159.41;2089644;85;20998;-81
2022/03/18 08:18:15;;;;;;;17.93;6.73;;;;;;;6.09;29.17;101160.56;2089841;84;21022;-81
2022/03/18 08:21:24;;;;;;;15.93;6.20;;;;;;;6.25;28.08;101165.56;2090655;85;21575;-81
2022/03/18 08:24:28;;;;;;;11.33;6.13;;;;;;;6.00;27.68;101163.41;2111353;84;21073;-83
2022/03/18 08:27:28;;;;;;;12.98;6.28;;;;;;;5.86;27.77;101161.16;2117022;84;21077;-82
2022/03/18 08:30:29;;;;;;;8.57;6.10;;;;;;;5.96;28.77;101173.97;2118543;84;21307;-83
2022/03/18 08:33:31;;;;;;;7.53;5.70;;;;;;;6.13;28.81;101182.91;2094771;84;21002;-82
2022/03/18 08:36:31;;;;;;;9.50;5.80;;;;;;;6.30;27.86;101182.73;2112130;84;21074;-80
2022/03/18 08:39:32;;;;;;;8.20;6.13;;;;;;;6.19;27.01;101194.09;2116619;83;20998;-82
2022/03/18 08:42:32;;;;;;;24.47;7.03;;;;;;;5.99;27.38;101193.63;2095048;84;21003;-83
2022/03/18 08:45:34;;;;;;;16.10;5.83;;;;;;;6.08;27.13;101191.17;2102844;84;21414;-81
2022/03/18 08:48:34;;;;;;;9.97;5.23;;;;;;;6.10;27.20;101190.48;2118905;83;21046;-80
2022/03/18 08:51:35;;;;;;;9.93;5.47;;;;;;;6.15;27.06;101181.72;2109890;84;21409;-82
2022/03/18 08:54:35;;;;;;;11.17;6.67;;;;;;;6.37;27.99;101196.59;2116418;83;21488;-84
2022/03/18 08:57:38;;;;;;;26.97;7.90;;;;;;;6.48;27.36;101193.02;2095506;84;21123;-83
2022/03/18 09:00:38;;;;;;;12.37;6.33;;;;;;;6.60;28.22;101195.10;2105431;84;20967;-82
2022/03/18 09:03:39;;;;;;;27.03;7.07;;;;;;;6.72;27.81;101193.70;2110233;83;21025;-81
2022/03/18 09:06:40;;;;;;;8.20;6.13;;;;;;;6.73;27.53;101194.20;2113423;83;20990;-83
2022/03/18 09:09:40;;;;;;;59.57;8.93;;;;;;;6.81;27.87;101196.89;2116293;84;20990;-81
2022/03/18 09:12:41;;;;;;;10.60;6.50;;;;;;;6.88;28.04;101196.47;2118018;84;20931;-82
2022/03/18 09:15:42;;;;;;;12.60;6.87;;;;;;;7.07;28.20;101196.37;2116137;84;21010;-82
2022/03/18 09:18:42;;;;;;;9.37;6.37;;;;;;;7.17;27.95;101206.14;2109250;83;21064;-81
2022/03/18 09:21:43;;;;;;;17.90;7.30;;;;;;;7.28;27.55;101218.09;2117786;84;21018;-83
2022/03/18 09:24:43;;;;;;;8.63;6.43;;;;;;;7.41;27.48;101221.06;2112813;83;21475;-83
2022/03/18 09:30:47;;;;;;;10.67;6.07;;;;;;;7.51;27.28;101210.42;2114531;84;22139;-82
2022/03/18 09:33:48;;;;;;;8.13;6.30;;;;;;;7.73;27.08;101220.84;2115023;84;21334;-81
2022/03/18 09:36:48;;;;;;;12.10;6.57;;;;;;;7.69;25.34;101221.05;2113753;84;21254;-84
2022/03/18 09:39:49;;;;;;;20.80;6.93;;;;;;;9.83;38.44;101214.69;2117364;84;21026;-83
2022/03/18 09:42:49;;;;;;;32.13;6.93;;;;;;;12.09;37.48;101220.92;2112693;84;20951;-81
2022/03/18 09:45:50;;;;;;;9.50;6.27;;;;;;;13.31;27.39;101208.98;2115157;83;21854;-81
2022/03/18 09:48:51;;;;;;;8.20;5.73;;;;;;;11.92;23.26;101213.16;2108761;84;21352;-83
2022/03/18 09:51:52;;;;;;;8.87;6.37;;;;;;;10.66;23.99;101223.36;2109905;84;21030;-83
2022/03/18 09:54:53;;;;;;;11.27;6.87;;;;;;;9.92;24.95;101225.61;2109238;83;21043;-82
2022/03/18 09:57:53;;;;;;;19.30;7.43;;;;;;;9.58;25.46;101222.94;2117417;84;21294;-82
2022/03/18 10:00:58;;;;;;;18.77;7.13;;;;;;;9.42;25.28;101229.41;2109389;84;21014;-82
2022/03/18 10:03:58;;;;;;;;;;;;;;;9.16;24.23;101227.98;2114103;84;21018;-82
2022/03/18 10:06:59;;;;;;;7.53;6.17;;;;;;;8.87;25.30;101238.98;2109762;84;20129;-81
2022/03/18 10:10:00;;;;;;;14.00;6.23;;;;;;;8.67;25.01;101238.25;2115218;84;20951;-84
2022/03/18 10:13:01;;;;;;;8.10;5.60;;;;;;;8.58;24.97;101236.39;2114525;83;20983;-84
2022/03/18 10:16:03;;;;;;;11.30;6.53;;;;;;;8.70;25.45;101233.63;2110759;84;20997;-85
2022/03/18 10:19:03;;;;;;;7.70;5.90;;;;;;;8.74;24.14;101229.98;2118454;83;21037;-82
2022/03/18 10:22:05;;;;;;;16.63;6.07;;;;;;;8.52;24.11;101241.23;2122901;84;20986;-81
2022/03/18 10:25:06;;;;;;;16.80;6.80;;;;;;;8.44;24.33;101249.01;2112001;84;21047;-83
2022/03/18 10:28:07;;;;;;;6.60;5.30;;;;;;;8.45;23.68;101247.80;2109387;83;21017;-83
2022/03/18 10:31:07;;;;;;;8.77;5.93;;;;;;;8.39;24.10;101248.73;2117253;84;20955;-84
2022/03/18 10:37:28;;;;;;;8.27;5.87;;;;;;;8.53;24.32;101255.64;2111286;84;21045;-84
2022/03/18 10:40:29;;;;;;;7.97;6.07;;;;;;;8.60;24.38;101251.69;2118208;83;21002;-83
2022/03/18 10:43:30;;;;;;;17.67;6.63;;;;;;;8.62;23.99;101260.08;2118665;84;21022;-82
2022/03/18 10:46:30;;;;;;;10.43;6.03;;;;;;;8.52;23.44;101256.86;2115628;84;21001;-78
2022/03/18 10:49:31;;;;;;;18.33;6.27;;;;;;;8.47;23.40;101257.00;2116977;84;21009;-85
2022/03/18 10:52:31;;;;;;;9.57;6.20;;;;;;;8.38;22.80;101255.16;2113446;84;21448;-85
2022/03/18 10:55:34;;;;;;;11.20;5.60;;;;;;;8.35;24.00;101251.08;2123896;84;21081;-82
2022/03/18 10:58:36;;;;;;;9.23;5.43;;;;;;;8.43;23.81;101252.42;2124298;84;21102;-83
2022/03/18 11:01:36;;;;;;;30.87;7.07;;;;;;;8.62;23.92;101244.87;2123610;84;21058;-83
2022/03/18 11:04:37;;;;;;;12.97;6.30;;;;;;;10.28;37.37;101244.91;2110163;84;20975;-85
2022/03/18 11:07:41;;;;;;;12.57;6.27;;;;;;;12.34;41.30;101245.58;2116858;83;20974;-84
2022/03/18 11:14:03;;;;;;;27.45;7.58;;;;;;;14.20;35.42;101234.59;2111089;84;21065;-82
2022/03/18 11:17:04;;;;;;;29.52;6.87;;;;;;;15.30;29.92;101229.53;2110542;83;20978;-85
2022/03/18 11:20:05;;;;;;;21.97;6.45;;;;;;;15.34;26.05;101233.58;2117221;83;21042;-86
2022/03/18 11:23:07;;;;;;;12.95;5.83;;;;;;;15.06;31.10;101222.20;2094516;84;21471;-83
2022/03/18 11:26:07;;;;;;;26.75;6.47;;;;;;;15.01;29.92;101222.90;2117968;84;21014;-80
2022/03/18 11:29:09;;;;;;;64.25;9.30;;;;;;;15.98;30.35;101219.71;2119716;84;21002;-84
2022/03/18 11:32:09;;;;;;;16.15;6.78;;;;;;;15.98;30.35;101219.71;2122558;84;20966;-85
2022/03/18 11:35:10;;;;;;;7.05;5.70;;;;;;;16.24;26.68;101216.04;2108808;83;20989;-84
2022/03/18 11:38:11;;;;;;;61.58;8.43;;;;;;;15.95;28.28;101220.52;2116105;84;21453;-85
2022/03/18 11:41:12;;;;;;;15.43;6.17;;;;;;;16.30;30.57;101214.88;2112655;83;21063;-81
2022/03/18 11:44:12;;;;;;;11.88;6.15;;;;;;;16.51;24.49;101228.65;2118419;84;21046;-83
2022/03/18 11:47:13;;;;;;;10.85;6.47;;;;;;;16.35;27.48;101219.84;2118426;84;20986;-83
2022/03/18 11:50:13;;;;;;;12.33;6.05;;;;;;;16.30;27.93;101218.84;2109915;83;20997;-79
2022/03/18 11:53:14;;;;;;;8.68;6.35;;;;;;;15.84;19.91;101220.22;2116097;84;21017;-79
2022/03/18 11:56:15;;;;;;;6.25;5.55;;;;;;;14.12;20.80;101222.92;2115095;84;21085;-81
2022/03/18 11:59:15;;;;;;;10.75;6.10;;;;;;;13.16;20.35;101229.76;2109903;84;21388;-82
2022/03/18 12:02:18;;;;;;;14.00;7.20;;;;;;;12.15;20.51;101238.66;2120306;83;21002;-85
2022/03/18 12:05:20;;;;;;;9.33;6.30;;;;;;;11.58;21.61;101231.66;2123654;84;21011;-81
2022/03/18 12:08:20;;;;;;;8.28;6.28;;;;;;;11.08;20.12;101236.70;2111491;84;21054;-80
2022/03/18 12:11:21;;;;;;;10.88;6.03;;;;;;;10.69;21.25;101232.65;2116217;84;21046;-80
2022/03/18 12:14:22;;;;;;;57.67;9.15;;;;;;;10.53;21.14;101234.91;2117861;84;21014;-79
2022/03/18 12:17:22;;;;;;;8.05;6.12;;;;;;;10.34;21.97;101232.57;2112050;84;21072;-83
2022/03/18 12:20:23;;;;;;;8.88;6.08;;;;;;;10.18;21.75;101233.06;2122459;84;20963;-79
2022/03/18 12:23:28;;;;;;;43.37;9.00;;;;;;;10.11;22.27;101225.73;2116910;84;21413;-78
2022/03/18 12:26:28;;;;;;;14.17;6.40;;;;;;;10.08;21.59;101221.67;2108950;84;21113;-77
2022/03/18 12:29:29;;;;;;;12.30;6.60;;;;;;;10.07;21.55;101216.37;2115846;84;20994;-86
2022/03/18 12:32:29;;;;;;;39.40;7.43;;;;;;;10.12;21.37;101214.48;2115470;84;21022;-84
2022/03/18 12:35:30;;;;;;;7.80;6.33;;;;;;;10.02;22.42;101224.38;2110043;83;20966;-87
2022/03/18 12:38:34;;;;;;;14.60;7.17;;;;;;;10.02;22.60;101216.55;2110359;83;21054;-85
2022/03/18 12:41:33;;;;;;;11.53;6.93;;;;;;;9.97;22.44;101217.61;2115903;84;21109;-84
2022/03/18 12:44:34;;;;;;;23.93;8.33;;;;;;;9.89;23.27;101208.08;2109072;83;21037;-85
2022/03/18 12:47:34;;;;;;;10.93;6.70;;;;;;;9.89;23.27;101208.08;2106198;84;21002;-84
2022/03/18 12:50:35;;;;;;;13.13;6.73;;;;;;;9.97;22.75;101216.30;2113305;83;21006;-86
2022/03/18 12:53:35;;;;;;;15.97;7.50;;;;;;;9.84;22.43;101211.27;2116508;84;21537;-85
2022/03/18 12:56:39;;;;;;;161.23;13.80;;;;;;;9.88;22.91;101221.94;2115528;84;21496;-86
2022/03/18 12:59:40;;;;;;;213.10;19.53;;;;;;;9.93;23.04;101224.80;2116340;83;21072;-84
2022/03/18 13:02:42;;;;;;;10.80;7.27;;;;;;;9.92;23.06;101215.17;2100031;84;21101;-86
2022/03/18 13:05:44;;;;;;;19.50;7.67;;;;;;;9.97;23.30;101215.00;2114765;84;21385;-83
2022/03/18 13:08:47;;;;;;;127.53;14.43;;;;;;;10.08;23.18;101216.45;2117185;83;21504;-87
2022/03/18 13:11:49;;;;;;;9.73;6.83;;;;;;;10.22;23.44;101214.58;2115692;84;21038;-82
2022/03/18 13:14:53;;;;;;;15.70;7.77;;;;;;;10.25;22.90;101218.65;2116051;84;21058;-79
2022/03/18 13:17:52;;;;;;;10.43;7.00;;;;;;;10.15;22.95;101218.96;2116233;84;21152;-81
2022/03/18 13:20:52;;;;;;;11.23;7.17;;;;;;;10.15;22.49;101218.55;2109335;83;21026;-82
2022/03/18 13:23:53;;;;;;;9.20;6.67;;;;;;;10.10;22.88;101218.73;2116113;84;21049;-86
2022/03/18 13:26:53;;;;;;;12.10;7.20;;;;;;;10.15;23.16;101221.58;2111874;84;21042;-82
2022/03/18 13:33:13;;;;;;;11.70;7.63;;;;;;;10.19;22.46;101220.91;2114588;84;21317;-82
2022/03/18 13:36:13;;;;;;;11.13;7.20;;;;;;;10.09;22.53;101219.55;2108974;84;21053;-81
2022/03/18 13:39:14;;;;;;;9.20;6.83;;;;;;;10.08;22.30;101219.06;2117595;84;21065;-78
2022/03/18 13:42:14;;;;;;;9.07;7.00;;;;;;;10.07;21.91;101211.16;2108832;83;20978;-79
2022/03/18 13:45:15;;;;;;;12.80;8.03;;;;;;;10.05;22.22;101221.51;2115526;84;21038;-80
2022/03/18 13:48:15;;;;;;;23.97;8.20;;;;;;;10.03;22.10;101222.25;2115711;83;21038;-80
2022/03/18 13:51:18;;;;;;;12.20;7.97;;;;;;;10.02;22.49;101220.05;2099490;84;21062;-81
2022/03/18 13:54:21;;;;;;;18.27;8.10;;;;;;;9.90;22.48;101206.37;2094574;84;21088;-83
2022/03/18 13:57:22;;;;;;;15.97;7.40;;;;;;;9.92;22.73;101209.95;2115712;84;21113;-81
2022/03/18 14:00:22;;;;;;;9.73;6.63;;;;;;;9.96;21.64;101206.69;2111235;84;21376;-82
2022/03/18 14:03:24;;;;;;;33.10;9.17;;;;;;;9.93;22.38;101210.44;2114748;83;20978;-84
2022/03/18 14:06:24;;;;;;;21.77;7.87;;;;;;;10.01;22.31;101218.26;2109541;83;21053;-83
2022/03/18 14:09:25;;;;;;;21.10;8.03;;;;;;;10.48;37.63;101214.20;2116727;84;20983;-82
2022/03/18 14:12:25;;;;;;;17.73;8.17;;;;;;;12.47;38.06;101207.70;2110283;84;20935;-79
2022/03/18 14:15:26;;;;;;;17.82;7.78;;;;;;;13.83;32.02;101204.36;2114306;83;20966;-81